sensor_id;sensor_type;location;lat;lon;timestamp;temperature;humidity
31747;DHT22;18319;48.974;8.462;2022-07-23T00:00:18;23.40;42.70
31747;DHT22;18319;48.974;8.462;2022-07-23T00:02:45;23.40;41.80
31747;DHT22;18319;48.974;8.462;2022-07-23T00:05:11;23.40;41.70
31747;DHT22;18319;48.974;8.462;2022-07-23T00:07:38;23.40;41.70
31747;DHT22;18319;48.974;8.462;2022-07-23T00:10:06;23.30;41.50
31747;DHT22;18319;48.974;8.462;2022-07-23T00:12:33;23.30;41.50
31747;DHT22;18319;48.974;8.462;2022-07-23T00:15:02;23.30;41.10
31747;DHT22;18319;48.974;8.462;2022-07-23T00:17:29;23.30;41.10
31747;DHT22;18319;48.974;8.462;2022-07-23T00:19:56;23.30;40.30
31747;DHT22;18319;48.974;8.462;2022-07-23T00:22:23;23.20;41.20
31747;DHT22;18319;48.974;8.462;2022-07-23T00:24:50;23.20;40.60
31747;DHT22;18319;48.974;8.462;2022-07-23T00:27:16;23.20;40.60
31747;DHT22;18319;48.974;8.462;2022-07-23T00:29:43;23.10;40.40
31747;DHT22;18319;48.974;8.462;2022-07-23T00:32:11;23.10;40.40
31747;DHT22;18319;48.974;8.462;2022-07-23T00:34:38;23.10;40.50
31747;DHT22;18319;48.974;8.462;2022-07-23T00:37:05;22.90;40.70
31747;DHT22;18319;48.974;8.462;2022-07-23T00:39:32;22.90;41.10
31747;DHT22;18319;48.974;8.462;2022-07-23T00:41:59;22.80;41.40
31747;DHT22;18319;48.974;8.462;2022-07-23T00:44:27;22.80;41.60
31747;DHT22;18319;48.974;8.462;2022-07-23T00:46:55;22.70;42.00
31747;DHT22;18319;48.974;8.462;2022-07-23T00:49:26;22.60;42.20
31747;DHT22;18319;48.974;8.462;2022-07-23T00:51:53;22.60;42.30
31747;DHT22;18319;48.974;8.462;2022-07-23T00:54:22;22.60;42.50
31747;DHT22;18319;48.974;8.462;2022-07-23T00:56:49;22.60;41.80
31747;DHT22;18319;48.974;8.462;2022-07-23T00:59:16;22.60;41.50
31747;DHT22;18319;48.974;8.462;2022-07-23T01:01:43;22.60;41.50
31747;DHT22;18319;48.974;8.462;2022-07-23T01:04:12;22.60;41.40
31747;DHT22;18319;48.974;8.462;2022-07-23T01:06:43;22.50;41.10
31747;DHT22;18319;48.974;8.462;2022-07-23T01:09:10;22.50;40.90
31747;DHT22;18319;48.974;8.462;2022-07-23T01:11:39;22.40;40.60
31747;DHT22;18319;48.974;8.462;2022-07-23T01:14:11;22.40;40.10
31747;DHT22;18319;48.974;8.462;2022-07-23T01:16:39;22.40;40.10
31747;DHT22;18319;48.974;8.462;2022-07-23T01:19:06;22.30;40.40
31747;DHT22;18319;48.974;8.462;2022-07-23T01:21:36;22.30;39.50
31747;DHT22;18319;48.974;8.462;2022-07-23T01:24:05;22.30;39.90
31747;DHT22;18319;48.974;8.462;2022-07-23T01:26:32;22.20;41.10
31747;DHT22;18319;48.974;8.462;2022-07-23T01:28:59;22.20;40.70
31747;DHT22;18319;48.974;8.462;2022-07-23T01:31:26;22.10;40.10
31747;DHT22;18319;48.974;8.462;2022-07-23T01:33:52;22.00;40.20
31747;DHT22;18319;48.974;8.462;2022-07-23T01:36:19;22.00;40.00
31747;DHT22;18319;48.974;8.462;2022-07-23T01:38:46;22.00;40.00
31747;DHT22;18319;48.974;8.462;2022-07-23T01:41:15;22.00;40.40
31747;DHT22;18319;48.974;8.462;2022-07-23T01:43:42;21.90;40.40
31747;DHT22;18319;48.974;8.462;2022-07-23T01:46:09;21.90;40.20
31747;DHT22;18319;48.974;8.462;2022-07-23T01:48:36;21.80;40.50
31747;DHT22;18319;48.974;8.462;2022-07-23T01:51:03;21.70;40.70
31747;DHT22;18319;48.974;8.462;2022-07-23T01:53:30;21.60;40.70
31747;DHT22;18319;48.974;8.462;2022-07-23T01:56:00;21.50;41.20
31747;DHT22;18319;48.974;8.462;2022-07-23T01:58:29;21.50;41.90
31747;DHT22;18319;48.974;8.462;2022-07-23T02:00:56;21.40;43.10
31747;DHT22;18319;48.974;8.462;2022-07-23T02:03:23;21.30;42.60
31747;DHT22;18319;48.974;8.462;2022-07-23T02:05:49;21.20;42.30
31747;DHT22;18319;48.974;8.462;2022-07-23T02:08:17;21.10;42.20
31747;DHT22;18319;48.974;8.462;2022-07-23T02:10:44;21.10;42.60
31747;DHT22;18319;48.974;8.462;2022-07-23T02:13:11;21.00;42.60
31747;DHT22;18319;48.974;8.462;2022-07-23T02:15:40;20.90;42.70
31747;DHT22;18319;48.974;8.462;2022-07-23T02:18:06;20.90;42.70
31747;DHT22;18319;48.974;8.462;2022-07-23T02:20:33;20.90;42.80
31747;DHT22;18319;48.974;8.462;2022-07-23T02:23:00;20.90;42.60
31747;DHT22;18319;48.974;8.462;2022-07-23T02:25:27;20.90;41.90
31747;DHT22;18319;48.974;8.462;2022-07-23T02:27:54;21.00;41.70
31747;DHT22;18319;48.974;8.462;2022-07-23T02:30:21;21.00;41.30
31747;DHT22;18319;48.974;8.462;2022-07-23T02:32:49;21.00;41.30
31747;DHT22;18319;48.974;8.462;2022-07-23T02:35:15;21.00;41.20
31747;DHT22;18319;48.974;8.462;2022-07-23T02:37:42;20.90;41.20
31747;DHT22;18319;48.974;8.462;2022-07-23T02:40:10;20.90;40.90
31747;DHT22;18319;48.974;8.462;2022-07-23T02:42:37;21.00;40.60
31747;DHT22;18319;48.974;8.462;2022-07-23T02:45:05;20.90;40.90
31747;DHT22;18319;48.974;8.462;2022-07-23T02:47:39;20.90;40.90
31747;DHT22;18319;48.974;8.462;2022-07-23T02:50:08;20.90;41.20
31747;DHT22;18319;48.974;8.462;2022-07-23T02:52:35;20.90;41.30
31747;DHT22;18319;48.974;8.462;2022-07-23T02:55:02;20.80;41.50
31747;DHT22;18319;48.974;8.462;2022-07-23T02:57:29;20.80;41.60
31747;DHT22;18319;48.974;8.462;2022-07-23T02:59:56;20.80;41.70
31747;DHT22;18319;48.974;8.462;2022-07-23T03:02:23;20.80;43.00
31747;DHT22;18319;48.974;8.462;2022-07-23T03:04:50;20.80;44.20
31747;DHT22;18319;48.974;8.462;2022-07-23T03:07:19;20.80;43.60
31747;DHT22;18319;48.974;8.462;2022-07-23T03:09:45;20.80;43.00
31747;DHT22;18319;48.974;8.462;2022-07-23T03:12:12;20.80;44.00
31747;DHT22;18319;48.974;8.462;2022-07-23T03:14:39;20.80;43.50
31747;DHT22;18319;48.974;8.462;2022-07-23T03:17:06;20.70;44.40
31747;DHT22;18319;48.974;8.462;2022-07-23T03:19:33;20.70;44.70
31747;DHT22;18319;48.974;8.462;2022-07-23T03:21:59;20.60;44.70
31747;DHT22;18319;48.974;8.462;2022-07-23T03:24:28;20.60;44.70
31747;DHT22;18319;48.974;8.462;2022-07-23T03:27:15;20.60;43.30
31747;DHT22;18319;48.974;8.462;2022-07-23T03:29:42;20.60;43.70
31747;DHT22;18319;48.974;8.462;2022-07-23T03:32:08;20.60;43.10
31747;DHT22;18319;48.974;8.462;2022-07-23T03:34:37;20.60;43.30
31747;DHT22;18319;48.974;8.462;2022-07-23T03:37:04;20.60;43.40
31747;DHT22;18319;48.974;8.462;2022-07-23T03:39:32;20.50;43.90
31747;DHT22;18319;48.974;8.462;2022-07-23T03:41:59;20.40;44.30
31747;DHT22;18319;48.974;8.462;2022-07-23T03:44:26;20.30;44.10
31747;DHT22;18319;48.974;8.462;2022-07-23T03:46:53;20.30;44.10
31747;DHT22;18319;48.974;8.462;2022-07-23T03:49:19;20.30;44.30
31747;DHT22;18319;48.974;8.462;2022-07-23T03:51:46;20.30;44.30
31747;DHT22;18319;48.974;8.462;2022-07-23T03:54:13;20.30;45.20
31747;DHT22;18319;48.974;8.462;2022-07-23T03:56:41;20.40;44.40
31747;DHT22;18319;48.974;8.462;2022-07-23T03:59:10;20.40;44.10
31747;DHT22;18319;48.974;8.462;2022-07-23T04:01:37;20.40;44.40
31747;DHT22;18319;48.974;8.462;2022-07-23T04:04:04;20.30;44.60
31747;DHT22;18319;48.974;8.462;2022-07-23T04:06:31;20.30;44.90
31747;DHT22;18319;48.974;8.462;2022-07-23T04:08:58;20.20;45.30
31747;DHT22;18319;48.974;8.462;2022-07-23T04:11:25;20.30;45.70
31747;DHT22;18319;48.974;8.462;2022-07-23T04:13:53;20.30;46.30
31747;DHT22;18319;48.974;8.462;2022-07-23T04:16:20;20.30;46.40
31747;DHT22;18319;48.974;8.462;2022-07-23T04:18:47;20.30;47.00
31747;DHT22;18319;48.974;8.462;2022-07-23T04:21:13;20.30;46.30
31747;DHT22;18319;48.974;8.462;2022-07-23T04:23:40;20.30;46.80
31747;DHT22;18319;48.974;8.462;2022-07-23T04:26:07;20.40;47.20
31747;DHT22;18319;48.974;8.462;2022-07-23T04:28:34;20.40;47.00
31747;DHT22;18319;48.974;8.462;2022-07-23T04:31:02;20.40;46.90
31747;DHT22;18319;48.974;8.462;2022-07-23T04:33:29;20.40;46.60
31747;DHT22;18319;48.974;8.462;2022-07-23T04:35:55;20.50;46.70
31747;DHT22;18319;48.974;8.462;2022-07-23T04:38:22;20.50;46.20
31747;DHT22;18319;48.974;8.462;2022-07-23T04:40:49;20.60;46.20
31747;DHT22;18319;48.974;8.462;2022-07-23T04:43:16;20.70;45.70
31747;DHT22;18319;48.974;8.462;2022-07-23T04:45:43;20.80;46.00
31747;DHT22;18319;48.974;8.462;2022-07-23T04:48:11;20.90;46.30
31747;DHT22;18319;48.974;8.462;2022-07-23T04:50:38;20.90;47.10
31747;DHT22;18319;48.974;8.462;2022-07-23T04:53:05;21.00;47.50
31747;DHT22;18319;48.974;8.462;2022-07-23T04:55:31;21.00;46.70
31747;DHT22;18319;48.974;8.462;2022-07-23T04:57:58;21.10;46.50
31747;DHT22;18319;48.974;8.462;2022-07-23T05:00:25;21.10;46.00
31747;DHT22;18319;48.974;8.462;2022-07-23T05:02:52;21.10;46.10
31747;DHT22;18319;48.974;8.462;2022-07-23T05:05:20;21.10;45.80
31747;DHT22;18319;48.974;8.462;2022-07-23T05:07:47;21.00;46.50
31747;DHT22;18319;48.974;8.462;2022-07-23T05:10:14;21.00;47.00
31747;DHT22;18319;48.974;8.462;2022-07-23T05:12:41;21.00;47.50
31747;DHT22;18319;48.974;8.462;2022-07-23T05:15:08;21.00;46.80
31747;DHT22;18319;48.974;8.462;2022-07-23T05:17:35;20.90;47.60
31747;DHT22;18319;48.974;8.462;2022-07-23T05:20:02;20.90;47.40
31747;DHT22;18319;48.974;8.462;2022-07-23T05:22:30;20.90;47.30
31747;DHT22;18319;48.974;8.462;2022-07-23T05:24:57;21.00;46.80
31747;DHT22;18319;48.974;8.462;2022-07-23T05:27:24;21.10;46.20
31747;DHT22;18319;48.974;8.462;2022-07-23T05:29:51;21.20;46.10
31747;DHT22;18319;48.974;8.462;2022-07-23T05:32:18;21.30;45.60
31747;DHT22;18319;48.974;8.462;2022-07-23T05:34:44;21.40;44.80
31747;DHT22;18319;48.974;8.462;2022-07-23T05:37:11;21.60;44.60
31747;DHT22;18319;48.974;8.462;2022-07-23T05:39:39;21.80;44.50
31747;DHT22;18319;48.974;8.462;2022-07-23T05:42:07;22.10;43.70
31747;DHT22;18319;48.974;8.462;2022-07-23T05:44:34;22.40;42.70
31747;DHT22;18319;48.974;8.462;2022-07-23T05:47:01;22.50;41.90
31747;DHT22;18319;48.974;8.462;2022-07-23T05:49:28;22.50;41.00
31747;DHT22;18319;48.974;8.462;2022-07-23T05:51:55;22.50;41.00
31747;DHT22;18319;48.974;8.462;2022-07-23T05:54:22;22.50;42.30
31747;DHT22;18319;48.974;8.462;2022-07-23T05:56:50;22.40;42.90
31747;DHT22;18319;48.974;8.462;2022-07-23T05:59:18;22.30;43.40
31747;DHT22;18319;48.974;8.462;2022-07-23T06:01:45;22.30;44.20
31747;DHT22;18319;48.974;8.462;2022-07-23T06:04:12;22.20;44.20
31747;DHT22;18319;48.974;8.462;2022-07-23T06:06:39;22.10;45.60
31747;DHT22;18319;48.974;8.462;2022-07-23T06:09:06;22.00;47.30
31747;DHT22;18319;48.974;8.462;2022-07-23T06:11:32;21.80;51.50
31747;DHT22;18319;48.974;8.462;2022-07-23T06:14:00;21.60;53.80
31747;DHT22;18319;48.974;8.462;2022-07-23T06:16:28;21.40;61.40
31747;DHT22;18319;48.974;8.462;2022-07-23T06:18:55;21.20;68.90
31747;DHT22;18319;48.974;8.462;2022-07-23T06:21:22;21.10;71.70
31747;DHT22;18319;48.974;8.462;2022-07-23T06:23:49;21.00;72.50
31747;DHT22;18319;48.974;8.462;2022-07-23T06:26:15;20.90;78.10
31747;DHT22;18319;48.974;8.462;2022-07-23T06:28:42;20.70;75.90
31747;DHT22;18319;48.974;8.462;2022-07-23T06:31:10;20.70;74.80
31747;DHT22;18319;48.974;8.462;2022-07-23T06:33:37;20.60;75.40
31747;DHT22;18319;48.974;8.462;2022-07-23T06:36:05;20.70;80.30
31747;DHT22;18319;48.974;8.462;2022-07-23T06:38:31;20.70;88.70
31747;DHT22;18319;48.974;8.462;2022-07-23T06:40:58;20.80;89.20
31747;DHT22;18319;48.974;8.462;2022-07-23T06:43:25;20.90;90.00
31747;DHT22;18319;48.974;8.462;2022-07-23T06:45:52;20.90;85.00
31747;DHT22;18319;48.974;8.462;2022-07-23T06:48:23;20.90;84.50
31747;DHT22;18319;48.974;8.462;2022-07-23T06:50:50;21.00;88.00
31747;DHT22;18319;48.974;8.462;2022-07-23T06:53:17;21.10;86.20
31747;DHT22;18319;48.974;8.462;2022-07-23T06:55:47;21.20;84.70
31747;DHT22;18319;48.974;8.462;2022-07-23T06:58:14;21.40;85.30
31747;DHT22;18319;48.974;8.462;2022-07-23T07:00:41;21.60;88.40
31747;DHT22;18319;48.974;8.462;2022-07-23T07:03:07;22.00;77.10
31747;DHT22;18319;48.974;8.462;2022-07-23T07:05:36;22.30;72.90
31747;DHT22;18319;48.974;8.462;2022-07-23T07:08:03;22.60;66.30
31747;DHT22;18319;48.974;8.462;2022-07-23T07:10:30;22.60;66.60
31747;DHT22;18319;48.974;8.462;2022-07-23T07:12:56;22.50;66.10
31747;DHT22;18319;48.974;8.462;2022-07-23T07:15:23;22.30;72.60
31747;DHT22;18319;48.974;8.462;2022-07-23T07:17:50;22.20;71.60
31747;DHT22;18319;48.974;8.462;2022-07-23T07:20:17;22.00;70.40
31747;DHT22;18319;48.974;8.462;2022-07-23T07:22:45;21.90;72.20
31747;DHT22;18319;48.974;8.462;2022-07-23T07:25:12;21.90;71.10
31747;DHT22;18319;48.974;8.462;2022-07-23T07:27:39;21.90;78.00
31747;DHT22;18319;48.974;8.462;2022-07-23T07:30:09;21.80;78.20
31747;DHT22;18319;48.974;8.462;2022-07-23T07:32:36;21.90;79.10
31747;DHT22;18319;48.974;8.462;2022-07-23T07:35:03;22.00;76.60
31747;DHT22;18319;48.974;8.462;2022-07-23T07:37:30;22.30;78.40
31747;DHT22;18319;48.974;8.462;2022-07-23T07:40:00;22.60;84.30
31747;DHT22;18319;48.974;8.462;2022-07-23T07:42:27;22.70;77.00
31747;DHT22;18319;48.974;8.462;2022-07-23T07:44:54;22.90;80.90
31747;DHT22;18319;48.974;8.462;2022-07-23T07:47:21;23.10;75.40
31747;DHT22;18319;48.974;8.462;2022-07-23T07:49:48;23.60;65.40
31747;DHT22;18319;48.974;8.462;2022-07-23T07:52:14;24.40;63.20
31747;DHT22;18319;48.974;8.462;2022-07-23T07:54:41;25.10;57.90
31747;DHT22;18319;48.974;8.462;2022-07-23T07:57:10;26.00;48.70
31747;DHT22;18319;48.974;8.462;2022-07-23T07:59:37;26.80;45.60
31747;DHT22;18319;48.974;8.462;2022-07-23T08:02:04;27.60;43.20
31747;DHT22;18319;48.974;8.462;2022-07-23T08:04:30;28.20;43.30
31747;DHT22;18319;48.974;8.462;2022-07-23T08:06:57;28.70;40.90
31747;DHT22;18319;48.974;8.462;2022-07-23T08:09:24;29.30;39.50
31747;DHT22;18319;48.974;8.462;2022-07-23T08:11:51;29.60;36.60
31747;DHT22;18319;48.974;8.462;2022-07-23T08:14:22;29.80;36.40
31747;DHT22;18319;48.974;8.462;2022-07-23T08:16:49;30.10;35.50
31747;DHT22;18319;48.974;8.462;2022-07-23T08:19:16;30.30;31.40
31747;DHT22;18319;48.974;8.462;2022-07-23T08:21:43;29.90;33.60
31747;DHT22;18319;48.974;8.462;2022-07-23T08:24:09;29.30;32.50
31747;DHT22;18319;48.974;8.462;2022-07-23T08:26:36;28.80;34.20
31747;DHT22;18319;48.974;8.462;2022-07-23T08:29:03;28.30;34.00
31747;DHT22;18319;48.974;8.462;2022-07-23T08:31:31;28.10;35.60
31747;DHT22;18319;48.974;8.462;2022-07-23T08:33:59;28.30;36.60
31747;DHT22;18319;48.974;8.462;2022-07-23T08:36:26;28.80;33.80
31747;DHT22;18319;48.974;8.462;2022-07-23T08:38:53;29.40;32.90
31747;DHT22;18319;48.974;8.462;2022-07-23T08:41:20;29.60;31.30
31747;DHT22;18319;48.974;8.462;2022-07-23T08:43:47;29.90;31.10
31747;DHT22;18319;48.974;8.462;2022-07-23T08:46:14;30.30;30.00
31747;DHT22;18319;48.974;8.462;2022-07-23T08:48:47;30.60;31.80
31747;DHT22;18319;48.974;8.462;2022-07-23T08:51:15;30.80;29.10
31747;DHT22;18319;48.974;8.462;2022-07-23T08:53:42;30.80;27.10
31747;DHT22;18319;48.974;8.462;2022-07-23T08:56:10;31.00;27.50
31747;DHT22;18319;48.974;8.462;2022-07-23T08:58:37;30.90;26.70
31747;DHT22;18319;48.974;8.462;2022-07-23T09:01:04;30.80;27.40
31747;DHT22;18319;48.974;8.462;2022-07-23T09:03:32;31.00;28.00
31747;DHT22;18319;48.974;8.462;2022-07-23T09:06:01;31.20;26.20
31747;DHT22;18319;48.974;8.462;2022-07-23T09:08:35;31.40;26.50
31747;DHT22;18319;48.974;8.462;2022-07-23T09:11:03;31.80;27.60
31747;DHT22;18319;48.974;8.462;2022-07-23T09:13:35;32.10;24.90
31747;DHT22;18319;48.974;8.462;2022-07-23T09:16:05;32.00;23.80
31747;DHT22;18319;48.974;8.462;2022-07-23T09:18:36;32.00;22.80
31747;DHT22;18319;48.974;8.462;2022-07-23T09:21:20;32.10;24.40
31747;DHT22;18319;48.974;8.462;2022-07-23T09:23:51;32.10;24.90
31747;DHT22;18319;48.974;8.462;2022-07-23T09:26:34;32.20;23.40
31747;DHT22;18319;48.974;8.462;2022-07-23T09:29:04;32.30;24.00
31747;DHT22;18319;48.974;8.462;2022-07-23T09:31:42;32.10;23.70
31747;DHT22;18319;48.974;8.462;2022-07-23T09:34:12;31.70;22.20
31747;DHT22;18319;48.974;8.462;2022-07-23T09:36:41;31.40;23.60
31747;DHT22;18319;48.974;8.462;2022-07-23T09:39:08;31.30;24.30
31747;DHT22;18319;48.974;8.462;2022-07-23T09:41:48;31.10;23.50
31747;DHT22;18319;48.974;8.462;2022-07-23T09:46:48;30.80;23.80
31747;DHT22;18319;48.974;8.462;2022-07-23T09:49:18;30.80;24.00
31747;DHT22;18319;48.974;8.462;2022-07-23T09:51:52;31.00;24.50
31747;DHT22;18319;48.974;8.462;2022-07-23T09:54:29;31.10;23.00
31747;DHT22;18319;48.974;8.462;2022-07-23T09:57:00;31.00;23.30
31747;DHT22;18319;48.974;8.462;2022-07-23T09:59:29;31.10;25.10
31747;DHT22;18319;48.974;8.462;2022-07-23T10:01:58;31.00;23.60
31747;DHT22;18319;48.974;8.462;2022-07-23T10:04:26;30.80;24.70
31747;DHT22;18319;48.974;8.462;2022-07-23T10:06:56;30.70;24.30
31747;DHT22;18319;48.974;8.462;2022-07-23T10:09:25;30.60;24.70
31747;DHT22;18319;48.974;8.462;2022-07-23T10:11:56;30.40;24.00
31747;DHT22;18319;48.974;8.462;2022-07-23T10:14:26;30.20;24.90
31747;DHT22;18319;48.974;8.462;2022-07-23T10:16:56;30.20;26.70
31747;DHT22;18319;48.974;8.462;2022-07-23T10:19:23;30.10;25.90
31747;DHT22;18319;48.974;8.462;2022-07-23T10:21:54;30.00;25.70
31747;DHT22;18319;48.974;8.462;2022-07-23T10:24:30;29.70;26.90
31747;DHT22;18319;48.974;8.462;2022-07-23T10:27:19;29.60;26.70
31747;DHT22;18319;48.974;8.462;2022-07-23T10:29:54;29.40;27.10
31747;DHT22;18319;48.974;8.462;2022-07-23T10:32:31;29.30;27.00
31747;DHT22;18319;48.974;8.462;2022-07-23T10:35:09;29.30;27.90
31747;DHT22;18319;48.974;8.462;2022-07-23T10:37:42;29.30;28.10
31747;DHT22;18319;48.974;8.462;2022-07-23T10:40:14;29.50;27.60
31747;DHT22;18319;48.974;8.462;2022-07-23T10:42:43;29.50;27.50
31747;DHT22;18319;48.974;8.462;2022-07-23T10:45:27;29.20;25.90
31747;DHT22;18319;48.974;8.462;2022-07-23T10:47:55;29.20;27.30
31747;DHT22;18319;48.974;8.462;2022-07-23T10:50:24;29.10;26.30
31747;DHT22;18319;48.974;8.462;2022-07-23T10:53:13;29.00;26.90
31747;DHT22;18319;48.974;8.462;2022-07-23T10:55:52;28.80;27.20
31747;DHT22;18319;48.974;8.462;2022-07-23T10:58:22;28.80;27.20
31747;DHT22;18319;48.974;8.462;2022-07-23T11:00:49;28.70;26.40
31747;DHT22;18319;48.974;8.462;2022-07-23T11:03:31;28.60;24.90
31747;DHT22;18319;48.974;8.462;2022-07-23T11:06:00;28.50;25.90
31747;DHT22;18319;48.974;8.462;2022-07-23T11:08:26;28.40;26.70
31747;DHT22;18319;48.974;8.462;2022-07-23T11:11:08;28.30;26.00
31747;DHT22;18319;48.974;8.462;2022-07-23T11:13:45;28.40;26.60
31747;DHT22;18319;48.974;8.462;2022-07-23T11:16:23;28.40;27.40
31747;DHT22;18319;48.974;8.462;2022-07-23T11:19:03;28.30;26.50
31747;DHT22;18319;48.974;8.462;2022-07-23T11:21:50;28.30;26.00
31747;DHT22;18319;48.974;8.462;2022-07-23T11:24:19;28.40;27.20
31747;DHT22;18319;48.974;8.462;2022-07-23T11:27:02;28.40;27.10
31747;DHT22;18319;48.974;8.462;2022-07-23T11:29:42;28.40;27.50
31747;DHT22;18319;48.974;8.462;2022-07-23T11:32:23;28.40;27.80
31747;DHT22;18319;48.974;8.462;2022-07-23T11:34:51;28.40;27.30
31747;DHT22;18319;48.974;8.462;2022-07-23T11:37:42;28.50;26.70
31747;DHT22;18319;48.974;8.462;2022-07-23T11:40:13;28.60;26.50
31747;DHT22;18319;48.974;8.462;2022-07-23T11:42:53;28.70;24.60
31747;DHT22;18319;48.974;8.462;2022-07-23T11:45:20;28.70;23.90
31747;DHT22;18319;48.974;8.462;2022-07-23T11:47:47;28.70;24.70
31747;DHT22;18319;48.974;8.462;2022-07-23T11:50:14;28.70;26.20
31747;DHT22;18319;48.974;8.462;2022-07-23T11:52:40;28.60;25.90
31747;DHT22;18319;48.974;8.462;2022-07-23T11:55:09;28.40;25.80
31747;DHT22;18319;48.974;8.462;2022-07-23T11:57:38;28.30;27.80
31747;DHT22;18319;48.974;8.462;2022-07-23T12:00:09;28.30;27.80
31747;DHT22;18319;48.974;8.462;2022-07-23T12:02:36;28.20;26.70
31747;DHT22;18319;48.974;8.462;2022-07-23T12:05:04;28.20;27.00
31747;DHT22;18319;48.974;8.462;2022-07-23T12:07:32;28.20;25.20
31747;DHT22;18319;48.974;8.462;2022-07-23T12:10:02;28.40;25.40
31747;DHT22;18319;48.974;8.462;2022-07-23T12:12:35;28.60;24.90
31747;DHT22;18319;48.974;8.462;2022-07-23T12:15:03;28.80;24.90
31747;DHT22;18319;48.974;8.462;2022-07-23T12:17:34;28.90;25.60
31747;DHT22;18319;48.974;8.462;2022-07-23T12:20:02;28.80;25.80
31747;DHT22;18319;48.974;8.462;2022-07-23T12:22:34;28.60;26.50
31747;DHT22;18319;48.974;8.462;2022-07-23T12:25:04;28.40;26.80
31747;DHT22;18319;48.974;8.462;2022-07-23T12:27:32;28.20;27.30
31747;DHT22;18319;48.974;8.462;2022-07-23T12:30:18;28.10;27.00
31747;DHT22;18319;48.974;8.462;2022-07-23T12:32:48;28.20;28.20
31747;DHT22;18319;48.974;8.462;2022-07-23T12:35:16;28.40;26.70
31747;DHT22;18319;48.974;8.462;2022-07-23T12:37:44;28.60;25.80
31747;DHT22;18319;48.974;8.462;2022-07-23T12:40:23;28.90;25.50
31747;DHT22;18319;48.974;8.462;2022-07-23T12:42:53;29.20;25.20
31747;DHT22;18319;48.974;8.462;2022-07-23T12:45:20;29.40;24.90
31747;DHT22;18319;48.974;8.462;2022-07-23T12:48:04;29.60;24.10
31747;DHT22;18319;48.974;8.462;2022-07-23T12:50:53;29.40;23.60
31747;DHT22;18319;48.974;8.462;2022-07-23T12:53:21;29.20;23.40
31747;DHT22;18319;48.974;8.462;2022-07-23T12:55:49;29.20;24.50
31747;DHT22;18319;48.974;8.462;2022-07-23T12:58:19;29.20;24.30
31747;DHT22;18319;48.974;8.462;2022-07-23T13:00:53;29.20;24.50
31747;DHT22;18319;48.974;8.462;2022-07-23T13:03:23;29.10;23.90
31747;DHT22;18319;48.974;8.462;2022-07-23T13:05:51;29.10;23.30
31747;DHT22;18319;48.974;8.462;2022-07-23T13:08:18;29.00;23.70
31747;DHT22;18319;48.974;8.462;2022-07-23T13:10:45;29.10;23.20
31747;DHT22;18319;48.974;8.462;2022-07-23T13:13:14;29.10;23.40
31747;DHT22;18319;48.974;8.462;2022-07-23T13:15:41;29.40;23.70
31747;DHT22;18319;48.974;8.462;2022-07-23T13:18:08;29.60;24.10
31747;DHT22;18319;48.974;8.462;2022-07-23T13:20:36;29.70;23.00
31747;DHT22;18319;48.974;8.462;2022-07-23T13:23:05;29.70;22.50
31747;DHT22;18319;48.974;8.462;2022-07-23T13:25:31;29.90;23.70
31747;DHT22;18319;48.974;8.462;2022-07-23T13:27:58;30.00;22.60
31747;DHT22;18319;48.974;8.462;2022-07-23T13:30:25;30.00;21.80
31747;DHT22;18319;48.974;8.462;2022-07-23T13:32:52;30.10;22.50
31747;DHT22;18319;48.974;8.462;2022-07-23T13:35:19;30.30;22.00
31747;DHT22;18319;48.974;8.462;2022-07-23T13:37:47;30.20;21.20
31747;DHT22;18319;48.974;8.462;2022-07-23T13:40:14;30.10;21.00
31747;DHT22;18319;48.974;8.462;2022-07-23T13:42:41;29.90;22.20
31747;DHT22;18319;48.974;8.462;2022-07-23T13:45:08;29.70;22.30
31747;DHT22;18319;48.974;8.462;2022-07-23T13:47:35;29.60;22.30
31747;DHT22;18319;48.974;8.462;2022-07-23T13:50:03;29.50;22.00
31747;DHT22;18319;48.974;8.462;2022-07-23T13:52:33;29.40;24.10
31747;DHT22;18319;48.974;8.462;2022-07-23T13:55:02;29.30;22.50
31747;DHT22;18319;48.974;8.462;2022-07-23T13:57:29;29.20;22.40
31747;DHT22;18319;48.974;8.462;2022-07-23T13:59:56;29.10;23.70
31747;DHT22;18319;48.974;8.462;2022-07-23T14:02:23;29.20;23.50
31747;DHT22;18319;48.974;8.462;2022-07-23T14:04:50;29.10;22.50
31747;DHT22;18319;48.974;8.462;2022-07-23T14:07:18;28.90;22.70
31747;DHT22;18319;48.974;8.462;2022-07-23T14:09:44;28.70;23.40
31747;DHT22;18319;48.974;8.462;2022-07-23T14:12:13;28.60;24.20
31747;DHT22;18319;48.974;8.462;2022-07-23T14:14:39;28.60;24.30
31747;DHT22;18319;48.974;8.462;2022-07-23T14:17:08;28.70;24.90
31747;DHT22;18319;48.974;8.462;2022-07-23T14:19:34;28.60;23.60
31747;DHT22;18319;48.974;8.462;2022-07-23T14:22:01;28.50;25.00
31747;DHT22;18319;48.974;8.462;2022-07-23T14:24:28;28.50;24.20
31747;DHT22;18319;48.974;8.462;2022-07-23T14:26:55;28.60;25.30
31747;DHT22;18319;48.974;8.462;2022-07-23T14:29:23;28.80;26.20
31747;DHT22;18319;48.974;8.462;2022-07-23T14:31:50;28.90;23.90
31747;DHT22;18319;48.974;8.462;2022-07-23T14:34:17;29.00;24.10
31747;DHT22;18319;48.974;8.462;2022-07-23T14:36:44;28.90;24.30
31747;DHT22;18319;48.974;8.462;2022-07-23T14:39:14;28.80;24.30
31747;DHT22;18319;48.974;8.462;2022-07-23T14:41:41;28.80;22.80
31747;DHT22;18319;48.974;8.462;2022-07-23T14:44:08;28.90;24.80
31747;DHT22;18319;48.974;8.462;2022-07-23T14:46:36;28.80;25.80
31747;DHT22;18319;48.974;8.462;2022-07-23T14:49:03;29.00;24.40
31747;DHT22;18319;48.974;8.462;2022-07-23T14:51:31;29.10;25.20
31747;DHT22;18319;48.974;8.462;2022-07-23T14:53:58;29.40;24.60
31747;DHT22;18319;48.974;8.462;2022-07-23T14:56:25;29.60;22.20
31747;DHT22;18319;48.974;8.462;2022-07-23T14:58:51;29.60;23.40
31747;DHT22;18319;48.974;8.462;2022-07-23T15:01:21;29.60;24.00
31747;DHT22;18319;48.974;8.462;2022-07-23T15:03:49;29.50;22.50
31747;DHT22;18319;48.974;8.462;2022-07-23T15:06:17;29.40;22.60
31747;DHT22;18319;48.974;8.462;2022-07-23T15:08:44;29.30;22.20
31747;DHT22;18319;48.974;8.462;2022-07-23T15:11:10;29.10;23.30
31747;DHT22;18319;48.974;8.462;2022-07-23T15:13:38;29.00;22.40
31747;DHT22;18319;48.974;8.462;2022-07-23T15:16:05;29.00;23.10
31747;DHT22;18319;48.974;8.462;2022-07-23T15:18:32;28.90;23.20
31747;DHT22;18319;48.974;8.462;2022-07-23T15:21:00;28.90;23.50
31747;DHT22;18319;48.974;8.462;2022-07-23T15:23:27;28.90;24.40
31747;DHT22;18319;48.974;8.462;2022-07-23T15:25:54;28.90;24.10
31747;DHT22;18319;48.974;8.462;2022-07-23T15:28:21;28.90;23.00
31747;DHT22;18319;48.974;8.462;2022-07-23T15:30:48;28.90;24.10
31747;DHT22;18319;48.974;8.462;2022-07-23T15:33:15;28.80;24.10
31747;DHT22;18319;48.974;8.462;2022-07-23T15:35:42;28.80;24.40
31747;DHT22;18319;48.974;8.462;2022-07-23T15:38:10;28.70;23.30
31747;DHT22;18319;48.974;8.462;2022-07-23T15:40:37;28.70;24.50